Time;durP1;ratioP1;P1;durP2;ratioP2;P2;SDS_P1;SDS_P2;PMS_P1;PMS_P2;Temp;Humidity;BMP_temperature;BMP_pressure;BME280_temperature;BME280_humidity;BME280_pressure;Samples;Min_cycle;Max_cycle;Signal;HPM_P1;HPM_P2
2023/08/26 00:00:13;;;;;;;;;2.00;2.00;;;;;21.82;55.08;100521.34;4927385;28;44927;-81
2023/08/26 00:02:38;;;;;;;;;2.00;2.00;;;;;21.70;54.71;100528.06;4926620;28;44738;-81
2023/08/26 00:05:04;;;;;;;;;1.75;1.75;;;;;21.72;54.75;100520.78;4928179;28;45162;-81
2023/08/26 00:07:33;;;;;;;;;2.00;2.00;;;;;21.83;54.56;100518.53;4927721;28;45370;-81
2023/08/26 00:10:02;;;;;;;;;1.00;1.00;;;;;21.85;54.84;100515.78;4926301;28;44861;-81
2023/08/26 00:12:27;;;;;;;;;1.00;1.00;;;;;21.74;54.98;100525.19;4910747;28;45101;-80
2023/08/26 00:14:52;;;;;;;;;2.00;2.00;;;;;21.76;55.18;100523.31;4925400;28;47405;-80
2023/08/26 00:17:18;;;;;;;;;1.00;1.00;;;;;21.78;55.44;100521.41;4926750;28;44828;-81
2023/08/26 00:19:54;;;;;;;;;2.00;2.00;;;;;21.83;55.08;100513.13;4909753;28;44873;-81
2023/08/26 00:22:20;;;;;;;;;1.00;1.00;;;;;21.66;55.19;100508.34;4927762;28;44828;-81
2023/08/26 00:25:39;;;;;;;;;2.00;2.00;;;;;21.86;54.95;100518.44;4925871;28;47082;-82
2023/08/26 00:28:05;;;;;;;;;1.00;1.00;;;;;21.72;55.28;100508.09;4926930;28;44879;-80
2023/08/26 00:30:31;;;;;;;;;3.00;3.00;;;;;21.69;54.85;100502.81;4927225;28;44770;-80
2023/08/26 00:32:56;;;;;;;;;2.50;2.00;;;;;21.71;55.08;100514.47;4927405;28;44879;-80
2023/08/26 00:35:22;;;;;;;;;2.00;2.00;;;;;21.78;55.09;100510.59;4909280;28;46727;-80
2023/08/26 00:37:49;;;;;;;;;2.00;2.00;;;;;21.63;55.23;100483.19;4925189;29;45362;-79
2023/08/26 00:40:24;;;;;;;;;1.00;1.00;;;;;21.82;54.83;100505.09;4926948;29;44856;-79
2023/08/26 00:42:54;;;;;;;;;2.00;2.00;;;;;21.75;55.23;100505.31;4910741;28;44813;-79
2023/08/26 00:45:20;;;;;;;;;1.00;1.00;;;;;21.58;55.05;100503.19;4925494;28;47238;-80
2023/08/26 00:47:45;;;;;;;;;1.75;1.75;;;;;21.48;55.21;100493.63;4910251;28;45159;-80
2023/08/26 00:50:11;;;;;;;;;4.00;2.00;;;;;21.47;55.26;100493.66;4925789;28;44977;-79
2023/08/26 00:52:40;;;;;;;;;4.00;3.00;;;;;21.50;55.10;100496.28;4926289;28;44968;-80
2023/08/26 00:55:07;;;;;;;;;0.75;0.75;;;;;21.46;55.56;100497.34;4924035;28;47002;-80
2023/08/26 00:57:33;;;;;;;;;1.75;1.75;;;;;21.30;55.97;100496.94;4925571;28;44772;-79
2023/08/26 00:59:59;;;;;;;;;1.00;1.00;;;;;21.26;55.60;100501.56;4910062;28;44954;-80
2023/08/26 01:02:24;;;;;;;;;2.25;1.00;;;;;21.19;55.56;100500.03;4890633;29;44905;-81
2023/08/26 01:04:50;;;;;;;;;2.00;2.00;;;;;21.13;55.70;100497.53;4888288;29;48360;-82
2023/08/26 01:07:16;;;;;;;;;0.75;0.75;;;;;21.13;55.97;100501.09;4904653;29;45450;-81
2023/08/26 01:09:41;;;;;;;;;2.00;2.00;;;;;21.06;56.08;100487.84;4903995;29;45633;-81
2023/08/26 01:12:25;;;;;;;;;1.00;1.00;;;;;21.21;55.81;100492.75;4903538;29;44840;-81
2023/08/26 01:15:02;;;;;;;;;2.25;2.00;;;;;21.18;56.05;100501.81;4901641;29;45431;-81
2023/08/26 01:17:28;;;;;;;;;3.00;2.00;;;;;21.05;55.79;100497.78;4884070;29;45508;-81
2023/08/26 01:19:56;;;;;;;;;2.00;2.00;;;;;21.06;56.24;100498.66;4885753;29;45422;-81
2023/08/26 01:22:24;;;;;;;;;1.00;1.00;;;;;20.99;56.28;100506.09;4902642;29;45571;-81
2023/08/26 01:24:50;;;;;;;;;2.00;2.00;;;;;20.97;56.31;100511.53;4902447;29;47693;-81
2023/08/26 01:27:17;;;;;;;;;2.00;2.00;;;;;20.96;56.10;100503.47;4902898;29;45803;-81
2023/08/26 01:29:42;;;;;;;;;1.67;1.67;;;;;20.93;55.98;100499.06;4902186;29;45418;-81
2023/08/26 01:32:15;;;;;;;;;1.00;1.00;;;;;21.13;56.43;100500.22;4902021;29;45715;-81
2023/08/26 01:34:46;;;;;;;;;2.67;2.33;;;;;21.01;56.67;100495.22;4902764;29;46199;-81
2023/08/26 01:37:20;;;;;;;;;1.67;1.67;;;;;21.10;56.52;100501.19;4887072;29;46138;-80
2023/08/26 01:39:48;;;;;;;;;1.00;1.00;;;;;21.00;57.05;100486.22;4904097;29;45488;-81
2023/08/26 01:42:16;;;;;;;;;3.00;3.00;;;;;20.95;57.01;100486.38;4888190;29;45522;-81
2023/08/26 01:44:42;;;;;;;;;1.25;1.00;;;;;21.02;56.94;100495.16;4904339;29;44992;-81
2023/08/26 01:47:08;;;;;;;;;2.00;2.00;;;;;20.87;56.75;100465.94;4903930;29;45482;-81
2023/08/26 01:49:34;;;;;;;;;2.25;2.00;;;;;20.91;56.53;100473.88;4903958;29;45389;-80
2023/08/26 01:52:00;;;;;;;;;1.00;1.00;;;;;20.92;56.80;100475.63;4905967;29;45332;-81
2023/08/26 01:54:25;;;;;;;;;1.00;1.00;;;;;20.86;56.57;100473.13;4887920;29;47375;-81
2023/08/26 01:56:50;;;;;;;;;2.00;2.00;;;;;20.88;56.57;100473.97;4903732;29;45472;-81
2023/08/26 01:59:16;;;;;;;;;1.75;1.75;;;;;20.73;56.88;100463.69;4888976;29;45386;-81
2023/08/26 02:01:42;;;;;;;;;1.00;1.00;;;;;20.70;56.70;100470.09;4902425;29;45707;-81
2023/08/26 02:04:07;;;;;;;;;2.00;2.00;;;;;20.57;56.85;100461.44;4904943;28;45522;-81
2023/08/26 02:06:33;;;;;;;;;2.00;2.00;;;;;20.67;57.30;100477.41;4906504;28;45479;-81
2023/08/26 02:08:58;;;;;;;;;1.50;1.50;;;;;20.58;57.27;100471.34;4908978;28;45427;-81
2023/08/26 02:11:24;;;;;;;;;2.00;2.00;;;;;20.55;57.52;100466.00;4909394;28;45879;-81
2023/08/26 02:13:49;;;;;;;;;1.00;1.00;;;;;20.50;57.47;100461.66;4889508;29;47120;-81
2023/08/26 02:16:14;;;;;;;;;1.00;1.00;;;;;20.50;57.47;100473.38;4906883;29;45498;-81
2023/08/26 02:18:40;;;;;;;;;1.00;1.00;;;;;20.42;57.55;100470.03;4907883;28;45410;-81
2023/08/26 02:21:05;;;;;;;;;1.00;1.00;;;;;20.42;57.42;100474.53;4907234;29;45440;-81
2023/08/26 02:23:31;;;;;;;;;2.00;1.25;;;;;20.36;57.96;100467.53;4905527;29;48700;-80
2023/08/26 02:26:39;;;;;;;;;1.75;1.75;;;;;20.48;57.79;100469.84;4890591;29;45669;-81
2023/08/26 02:29:05;;;;;;;;;1.00;1.00;;;;;20.32;58.16;100468.50;4906410;29;45381;-81
2023/08/26 02:31:33;;;;;;;;;2.00;2.00;;;;;20.30;58.24;100459.56;4891027;29;45437;-81
2023/08/26 02:33:58;;;;;;;;;2.00;2.00;;;;;20.30;57.94;100463.19;4907026;29;45495;-82
2023/08/26 02:36:26;;;;;;;;;2.00;1.75;;;;;20.28;58.02;100462.34;4888892;29;45540;-81
2023/08/26 02:39:42;;;;;;;;;1.75;1.75;;;;;20.46;58.19;100460.91;4904354;29;45448;-82
2023/08/26 02:42:08;;;;;;;;;2.00;2.00;;;;;20.27;58.42;100447.06;4906338;29;45419;-82
2023/08/26 02:44:33;;;;;;;;;1.00;1.00;;;;;20.23;58.44;100448.09;4889189;29;47179;-81
2023/08/26 02:46:59;;;;;;;;;1.00;1.00;;;;;20.30;58.44;100451.47;4906652;29;45364;-80
2023/08/26 02:49:26;;;;;;;;;2.00;1.00;;;;;20.33;58.46;100446.00;4888501;29;45655;-80
2023/08/26 02:51:51;;;;;;;;;2.00;2.00;;;;;20.23;58.30;100448.09;4905495;29;45350;-81
2023/08/26 02:54:18;;;;;;;;;2.00;1.00;;;;;20.23;58.52;100447.22;4889861;29;47099;-81
2023/08/26 02:56:43;;;;;;;;;3.00;1.75;;;;;20.09;58.56;100436.81;4904707;29;45382;-81
2023/08/26 02:59:09;;;;;;;;;3.00;1.25;;;;;20.14;58.68;100443.88;4888409;29;45430;-81
2023/08/26 03:01:36;;;;;;;;;1.25;1.25;;;;;20.14;58.78;100443.88;4905751;29;45347;-81
2023/08/26 03:04:03;;;;;;;;;2.50;2.50;;;;;20.10;58.95;100452.13;4906150;29;45419;-82
2023/08/26 03:06:30;;;;;;;;;2.00;2.00;;;;;19.95;58.75;100438.09;4888142;29;45403;-81
2023/08/26 03:08:55;;;;;;;;;0.00;0.00;;;;;19.93;59.27;100444.50;4887048;29;45355;-81
2023/08/26 03:11:23;;;;;;;;;2.50;2.00;;;;;19.81;59.29;100426.84;4903021;29;45447;-81
2023/08/26 03:14:01;;;;;;;;;1.00;1.00;;;;;19.96;59.52;100434.50;4903499;29;45464;-81
2023/08/26 03:16:27;;;;;;;;;2.00;2.00;;;;;19.76;59.68;100426.97;4886667;29;45598;-81
2023/08/26 03:18:53;;;;;;;;;2.75;2.00;;;;;19.68;59.48;100415.50;4902760;29;45524;-81
2023/08/26 03:21:24;;;;;;;;;1.00;1.00;;;;;19.87;59.55;100440.16;4887902;29;45383;-81
2023/08/26 03:23:52;;;;;;;;;0.00;0.00;;;;;19.81;59.55;100434.06;4903149;29;45589;-81
2023/08/26 03:26:18;;;;;;;;;2.00;1.00;;;;;19.61;59.83;100416.59;4901388;29;46133;-81
2023/08/26 03:28:44;;;;;;;;;2.00;2.00;;;;;19.66;59.86;100425.44;4886186;29;45269;-80
2023/08/26 03:31:17;;;;;;;;;2.00;2.00;;;;;19.67;60.04;100435.28;4903298;29;45328;-81
2023/08/26 03:33:42;;;;;;;;;2.00;2.00;;;;;19.64;60.11;100432.69;4902266;29;45607;-81
2023/08/26 03:36:07;;;;;;;;;1.00;1.00;;;;;19.62;59.99;100439.94;4902814;29;45379;-81
2023/08/26 03:38:35;;;;;;;;;2.50;2.00;;;;;19.64;60.19;100432.69;4902998;29;45719;-81
2023/08/26 03:41:04;;;;;;;;;1.00;1.00;;;;;19.65;60.17;100433.56;4904533;29;45405;-81
2023/08/26 03:43:30;;;;;;;;;2.67;1.33;;;;;19.53;60.38;100445.59;4902324;29;48222;-81
2023/08/26 03:45:57;;;;;;;;;3.33;3.33;;;;;19.51;60.55;100436.66;4904109;29;45471;-81
2023/08/26 03:48:23;;;;;;;;;1.25;1.25;;;;;19.51;60.49;100439.34;4901237;29;45398;-80
2023/08/26 03:50:57;;;;;;;;;2.50;2.00;;;;;19.54;60.36;100429.38;4901968;29;45490;-81
2023/08/26 03:53:23;;;;;;;;;3.00;3.00;;;;;19.35;60.74;100425.41;4903762;29;45550;-80
2023/08/26 03:55:49;;;;;;;;;1.00;1.00;;;;;19.33;61.07;100429.94;4899414;29;45546;-80
2023/08/26 03:58:14;;;;;;;;;2.00;2.00;;;;;19.39;61.32;100432.50;4903544;29;45620;-80
2023/08/26 04:00:40;;;;;;;;;3.00;3.00;;;;;19.37;61.48;100427.16;4905639;28;45502;-81
2023/08/26 04:03:06;;;;;;;;;1.00;1.00;;;;;19.34;61.52;100418.25;4902827;29;45515;-81
2023/08/26 04:05:32;;;;;;;;;2.25;2.00;;;;;19.39;61.87;100427.13;4903741;29;45392;-81
2023/08/26 04:08:01;;;;;;;;;2.25;2.25;;;;;19.31;62.43;100416.53;4905672;29;45739;-81
2023/08/26 04:10:29;;;;;;;;;1.00;1.00;;;;;19.32;62.09;100420.97;4905204;29;44804;-81
2023/08/26 04:13:18;;;;;;;;;3.00;2.00;;;;;19.43;62.53;100427.88;4904478;29;46803;-81
2023/08/26 04:15:43;;;;;;;;;3.25;3.00;;;;;19.29;62.90;100420.16;4906325;29;45517;-82
2023/08/26 04:18:09;;;;;;;;;1.75;1.75;;;;;19.36;62.74;100437.97;4902519;29;45503;-82
2023/08/26 04:20:42;;;;;;;;;3.25;2.25;;;;;19.46;63.03;100434.09;4902458;29;45438;-82
2023/08/26 04:23:08;;;;;;;;;3.75;1.75;;;;;19.26;63.20;100415.75;4885047;29;47744;-81
2023/08/26 04:25:37;;;;;;;;;1.75;1.75;;;;;19.31;63.20;100419.22;4902194;29;45375;-81
2023/08/26 04:28:03;;;;;;;;;2.00;2.00;;;;;19.36;63.28;100424.47;4902366;29;45428;-81
2023/08/26 04:30:28;;;;;;;;;2.00;2.00;;;;;19.36;63.35;100430.75;4902028;29;45403;-81
2023/08/26 04:32:54;;;;;;;;;3.67;3.00;;;;;19.38;63.74;100430.72;4885043;29;48431;-82
2023/08/26 04:35:20;;;;;;;;;2.00;2.00;;;;;19.26;63.83;100422.97;4887306;29;45338;-81
2023/08/26 04:37:46;;;;;;;;;1.00;1.00;;;;;19.18;63.93;100417.78;4884768;29;45464;-81
2023/08/26 04:40:15;;;;;;;;;2.50;1.00;;;;;19.18;64.10;100420.47;4886364;29;45471;-82
2023/08/26 04:42:45;;;;;;;;;2.00;2.00;;;;;19.32;64.14;100437.16;4903287;29;45456;-81
2023/08/26 04:45:14;;;;;;;;;2.00;2.00;;;;;19.18;64.45;100439.34;4902229;29;45473;-82
2023/08/26 04:47:40;;;;;;;;;3.00;1.33;;;;;19.20;64.39;100432.09;4902724;29;45501;-81
2023/08/26 04:50:12;;;;;;;;;2.00;2.00;;;;;19.23;64.49;100429.34;4901773;29;45471;-82
2023/08/26 04:52:39;;;;;;;;;1.00;1.00;;;;;19.18;64.45;100417.78;4904290;29;45485;-82
2023/08/26 04:55:07;;;;;;;;;1.75;1.75;;;;;19.32;64.65;100431.75;4885343;29;45475;-80
2023/08/26 04:57:32;;;;;;;;;2.00;2.00;;;;;19.24;64.64;100431.09;4901907;29;45416;-81
2023/08/26 04:59:58;;;;;;;;;2.25;1.00;;;;;19.21;64.64;100425.78;4886112;29;45544;-80
2023/08/26 05:05:45;;;;;;;;;2.00;1.00;;;;;19.20;65.30;100442.88;4903199;29;45426;-80
2023/08/26 05:08:10;;;;;;;;;2.00;1.00;;;;;19.13;65.01;100427.81;4903894;29;45456;-81
2023/08/26 05:10:38;;;;;;;;;1.67;1.67;;;;;19.21;65.21;100443.75;4901281;29;45446;-81
2023/08/26 05:13:04;;;;;;;;;3.00;1.75;;;;;19.11;65.85;100451.22;4902120;29;45364;-80
2023/08/26 05:15:29;;;;;;;;;2.00;2.00;;;;;19.10;65.83;100462.91;4901920;29;45288;-82
2023/08/26 05:17:55;;;;;;;;;2.00;2.00;;;;;19.12;65.95;100455.69;4903253;29;45283;-81
2023/08/26 05:20:21;;;;;;;;;1.00;1.00;;;;;19.12;65.92;100471.84;4886261;29;45467;-81
2023/08/26 05:22:46;;;;;;;;;2.00;2.00;;;;;19.13;65.71;100473.63;4902597;29;48235;-81
2023/08/26 05:25:12;;;;;;;;;2.00;2.00;;;;;19.13;65.73;100463.72;4902653;29;45522;-82
2023/08/26 05:27:37;;;;;;;;;1.33;1.33;;;;;19.17;65.73;100460.03;4903371;29;45393;-82
2023/08/26 05:30:04;;;;;;;;;2.00;2.00;;;;;19.19;65.89;100457.31;4905448;29;45891;-82
2023/08/26 05:32:32;;;;;;;;;2.00;2.00;;;;;19.28;65.86;100461.56;4902532;29;45530;-82
2023/08/26 05:34:57;;;;;;;;;2.00;2.00;;;;;19.25;65.78;100467.94;4884557;29;45551;-81
2023/08/26 05:37:24;;;;;;;;;2.00;2.00;;;;;19.31;65.93;100467.75;4901953;29;45385;-81
2023/08/26 05:39:50;;;;;;;;;2.00;2.00;;;;;19.24;66.11;100446.38;4901746;29;45542;-81
2023/08/26 05:42:15;;;;;;;;;2.50;2.50;;;;;19.34;65.93;100448.78;4905233;29;45087;-82
2023/08/26 05:44:40;;;;;;;;;2.00;2.00;;;;;19.41;66.34;100456.72;4905248;29;45333;-81
2023/08/26 05:47:06;;;;;;;;;2.25;1.50;;;;;19.39;65.94;100432.50;4906620;28;45945;-81
2023/08/26 05:49:31;;;;;;;;;2.00;2.00;;;;;19.51;65.48;100444.75;4906084;29;45732;-81
2023/08/26 05:51:58;;;;;;;;;1.25;1.25;;;;;19.72;65.43;100441.50;4890543;29;47192;-82
2023/08/26 05:54:23;;;;;;;;;3.00;2.00;;;;;19.59;65.14;100424.75;4907742;29;45425;-82
2023/08/26 05:56:48;;;;;;;;;2.00;2.00;;;;;19.76;65.00;100445.88;4906509;29;45318;-81
2023/08/26 05:59:14;;;;;;;;;1.25;0.00;;;;;19.82;64.66;100435.84;4906764;29;45502;-82
2023/08/26 06:01:39;;;;;;;;;1.25;1.25;;;;;19.96;64.45;100442.59;4906601;29;45820;-82
2023/08/26 06:04:05;;;;;;;;;2.00;2.00;;;;;20.07;64.21;100444.97;4888774;29;45389;-82
2023/08/26 06:06:30;;;;;;;;;1.00;1.00;;;;;20.18;64.05;100442.84;4905862;29;44815;-82
2023/08/26 06:08:57;;;;;;;;;0.25;0.25;;;;;20.25;63.98;100443.53;4907172;29;45410;-82
2023/08/26 06:11:23;;;;;;;;;3.00;2.00;;;;;20.34;63.69;100443.25;4908145;29;45451;-81
2023/08/26 06:13:51;;;;;;;;;1.00;1.00;;;;;20.39;63.55;100435.00;4910063;29;45372;-81
2023/08/26 06:16:19;;;;;;;;;1.00;1.00;;;;;20.43;63.29;100441.19;4907165;29;45339;-81
2023/08/26 06:18:48;;;;;;;;;2.25;2.00;;;;;20.59;63.16;100447.91;4905492;29;45439;-81
2023/08/26 06:21:14;;;;;;;;;1.00;1.00;;;;;20.63;62.89;100451.41;4903045;29;47531;-81
2023/08/26 06:23:48;;;;;;;;;2.00;2.00;;;;;20.75;62.89;100445.59;4886740;29;45432;-81
2023/08/26 06:26:13;;;;;;;;;1.00;1.00;;;;;20.73;62.49;100459.16;4904434;29;45336;-81
2023/08/26 06:28:38;;;;;;;;;0.25;0.25;;;;;20.91;62.46;100457.66;4904179;29;45395;-81
2023/08/26 06:31:04;;;;;;;;;2.00;2.00;;;;;20.95;62.20;100442.25;4887854;29;47070;-81
2023/08/26 06:33:29;;;;;;;;;1.25;1.00;;;;;21.10;62.13;100446.22;4888830;29;45321;-80
2023/08/26 06:35:55;;;;;;;;;1.75;1.75;;;;;21.18;61.93;100438.75;4907823;29;45425;-81
2023/08/26 06:38:20;;;;;;;;;0.00;0.00;;;;;21.11;61.44;100424.56;4907648;29;45351;-82
2023/08/26 06:40:56;;;;;;;;;0.50;0.50;;;;;21.33;61.66;100437.31;4905353;29;45359;-81
2023/08/26 06:43:22;;;;;;;;;2.00;1.75;;;;;21.33;61.68;100443.63;4906309;29;45344;-82
2023/08/26 06:45:47;;;;;;;;;2.00;2.00;;;;;21.35;61.78;100439.03;4906108;29;45466;-82
2023/08/26 06:48:13;;;;;;;;;1.75;1.25;;;;;21.47;61.27;100445.88;4905386;29;45488;-81
2023/08/26 06:50:40;;;;;;;;;1.00;1.00;;;;;21.43;61.26;100438.81;4887042;29;47080;-83
2023/08/26 06:53:06;;;;;;;;;1.00;1.00;;;;;21.45;61.48;100442.34;4886214;29;45491;-81
2023/08/26 06:55:31;;;;;;;;;1.25;0.75;;;;;21.47;61.00;100440.47;4904344;29;45446;-81
2023/08/26 06:57:56;;;;;;;;;1.00;1.00;;;;;21.55;61.30;100432.94;4904820;29;45483;-82
2023/08/26 07:00:22;;;;;;;;;2.00;2.00;;;;;21.66;60.98;100440.66;4887842;29;47338;-81
2023/08/26 07:02:47;;;;;;;;;2.00;0.50;;;;;21.70;60.90;100436.91;4904285;29;45420;-81
2023/08/26 07:05:16;;;;;;;;;1.75;1.75;;;;;21.89;60.56;100438.94;4905992;29;45425;-81
2023/08/26 07:07:42;;;;;;;;;2.00;1.00;;;;;21.81;60.77;100425.66;4888524;29;45782;-80
2023/08/26 07:10:08;;;;;;;;;1.00;1.00;;;;;21.90;60.13;100438.88;4906313;29;45424;-80
2023/08/26 07:12:33;;;;;;;;;2.00;2.00;;;;;21.95;60.71;100428.75;4905066;29;45564;-81
2023/08/26 07:15:03;;;;;;;;;0.00;0.00;;;;;21.99;60.08;100429.50;4904632;29;45450;-81
2023/08/26 07:17:28;;;;;;;;;0.25;0.00;;;;;22.11;59.96;100430.88;4888197;29;45418;-81
2023/08/26 07:19:54;;;;;;;;;1.50;1.50;;;;;22.18;60.45;100436.00;4904951;29;46061;-81
2023/08/26 07:22:19;;;;;;;;;1.00;1.00;;;;;22.26;60.14;100440.25;4905451;29;45346;-81
2023/08/26 07:24:45;;;;;;;;;2.00;1.00;;;;;22.31;59.49;100439.13;4888542;29;45478;-80
2023/08/26 07:27:12;;;;;;;;;2.25;2.25;;;;;22.28;59.05;100424.81;4905344;29;45352;-81
2023/08/26 07:29:38;;;;;;;;;0.75;0.75;;;;;22.31;59.17;100422.00;4905426;29;45860;-81
2023/08/26 07:32:04;;;;;;;;;1.00;1.00;;;;;22.46;59.00;100434.94;4903485;29;45517;-81
2023/08/26 07:34:30;;;;;;;;;1.50;1.50;;;;;22.37;58.44;100416.34;4904217;29;45403;-80
2023/08/26 07:36:55;;;;;;;;;1.00;1.00;;;;;22.40;59.03;100418.94;4904447;29;45416;-81
2023/08/26 07:39:25;;;;;;;;;0.25;0.25;;;;;22.70;59.03;100430.34;4887087;29;47040;-81
2023/08/26 07:41:51;;;;;;;;;1.00;0.25;;;;;22.68;58.76;100434.06;4903848;29;45716;-81
2023/08/26 07:44:20;;;;;;;;;1.25;0.75;;;;;22.96;58.55;100436.50;4903919;29;45440;-81
2023/08/26 07:46:46;;;;;;;;;1.00;1.00;;;;;22.89;58.28;100425.03;4906222;29;45437;-81
2023/08/26 07:49:11;;;;;;;;;1.00;1.00;;;;;23.05;57.82;100438.00;4903029;29;47211;-82
2023/08/26 07:51:37;;;;;;;;;2.75;1.25;;;;;22.93;58.01;100418.53;4904543;29;45367;-81
2023/08/26 07:54:02;;;;;;;;;0.75;0.75;;;;;23.06;57.81;100435.19;4903318;29;45394;-82
2023/08/26 07:56:28;;;;;;;;;1.00;1.00;;;;;23.10;57.88;100427.81;4904759;29;45455;-81
2023/08/26 07:58:53;;;;;;;;;1.75;1.00;;;;;23.29;56.96;100439.66;4904915;28;45444;-81
2023/08/26 08:01:19;;;;;;;;;1.00;1.00;;;;;23.28;57.07;100431.56;4888627;29;45323;-82
2023/08/26 08:03:44;;;;;;;;;0.25;0.25;;;;;23.34;56.35;100442.16;4906162;29;45355;-82
2023/08/26 08:06:09;;;;;;;;;0.00;0.00;;;;;23.38;56.68;100437.47;4889267;29;45868;-82
2023/08/26 08:08:35;;;;;;;;;0.50;0.50;;;;;23.44;56.40;100431.78;4905397;29;45048;-82
2023/08/26 08:11:00;;;;;;;;;0.25;0.25;;;;;23.51;56.48;100446.81;4905031;29;44935;-82
2023/08/26 08:13:26;;;;;;;;;3.00;1.50;;;;;23.48;57.07;100444.25;4906062;29;45402;-82
2023/08/26 08:15:54;;;;;;;;;1.00;1.00;;;;;23.67;56.71;100449.75;4904172;29;45410;-82
2023/08/26 08:18:20;;;;;;;;;1.75;1.75;;;;;23.62;56.00;100455.38;4887197;29;47194;-82
2023/08/26 08:20:45;;;;;;;;;0.00;0.00;;;;;23.63;56.50;100453.53;4901846;28;45383;-82
2023/08/26 08:23:12;;;;;;;;;0.50;0.50;;;;;23.82;56.07;100465.38;4885801;29;45316;-82
2023/08/26 08:25:38;;;;;;;;;1.00;1.00;;;;;24.00;56.24;100466.38;4903061;29;45464;-82
2023/08/26 08:28:04;;;;;;;;;1.25;1.25;;;;;23.94;55.87;100472.09;4903650;29;45285;-81
2023/08/26 08:30:35;;;;;;;;;1.00;1.00;;;;;24.12;55.76;100478.53;4903297;29;45487;-82
2023/08/26 08:33:01;;;;;;;;;1.25;1.00;;;;;24.02;56.08;100478.06;4903871;29;45914;-82
2023/08/26 08:35:29;;;;;;;;;1.25;1.25;;;;;24.11;55.24;100476.75;4906103;29;45746;-82
2023/08/26 08:37:55;;;;;;;;;1.00;1.00;;;;;23.90;55.21;100478.63;4901655;28;48269;-82
2023/08/26 08:40:20;;;;;;;;;1.75;1.75;;;;;23.92;55.58;100472.16;4903011;29;45419;-82
2023/08/26 08:42:47;;;;;;;;;1.00;1.00;;;;;24.03;54.86;100484.38;4885276;29;45477;-82
2023/08/26 08:45:13;;;;;;;;;1.50;1.00;;;;;23.69;55.49;100470.47;4902566;28;45631;-82
2023/08/26 08:47:38;;;;;;;;;1.50;1.50;;;;;23.57;55.24;100484.56;4902054;29;47417;-83
2023/08/26 08:50:05;;;;;;;;;2.00;2.00;;;;;23.59;55.43;100490.81;4903028;29;45479;-82
2023/08/26 08:52:32;;;;;;;;;3.00;1.25;;;;;23.58;55.72;100493.59;4885956;29;45464;-82
2023/08/26 08:55:05;;;;;;;;;1.75;1.75;;;;;23.65;55.86;100489.66;4904110;29;45434;-82
2023/08/26 08:57:34;;;;;;;;;2.50;1.00;;;;;23.67;55.79;100488.66;4901838;29;48143;-82
2023/08/26 09:00:02;;;;;;;;;0.00;0.00;;;;;23.70;55.64;100477.66;4902419;29;45477;-81
2023/08/26 09:05:52;;;;;;;;;0.25;0.25;;;;;23.80;54.75;100477.28;4905209;29;44790;-81
2023/08/26 09:08:22;;;;;;;;;1.00;1.00;;;;;23.79;55.05;100479.09;4903797;29;45759;-82
2023/08/26 09:10:48;;;;;;;;;1.75;1.50;;;;;23.78;54.82;100484.63;4900599;29;45481;-82
2023/08/26 09:13:14;;;;;;;;;2.00;2.00;;;;;23.88;55.26;100494.09;4900367;29;45482;-80
2023/08/26 09:15:39;;;;;;;;;1.00;1.00;;;;;23.93;54.51;100494.75;4902465;29;45421;-82
2023/08/26 09:18:11;;;;;;;;;1.00;1.00;;;;;24.06;54.83;100487.84;4903634;29;46226;-81
2023/08/26 09:20:40;;;;;;;;;1.00;1.00;;;;;24.12;54.63;100484.81;4887991;29;45478;-81
2023/08/26 09:23:08;;;;;;;;;1.00;1.00;;;;;24.21;54.14;100488.06;4902662;29;45383;-81
2023/08/26 09:25:36;;;;;;;;;1.00;1.00;;;;;24.44;54.15;100487.88;4905251;29;45873;-82
2023/08/26 09:28:03;;;;;;;;;1.00;1.00;;;;;24.53;53.90;100484.72;4904277;29;45539;-81
2023/08/26 09:30:32;;;;;;;;;3.25;1.25;;;;;24.81;53.02;100487.97;4904006;29;45364;-81
2023/08/26 09:33:11;;;;;;;;;1.00;1.00;;;;;25.20;52.16;100501.41;4904054;29;45404;-81
2023/08/26 09:35:47;;;;;;;;;1.00;1.00;;;;;25.34;51.49;100487.13;4905756;29;44835;-82
2023/08/26 09:38:15;;;;;;;;;2.00;0.00;;;;;25.31;51.27;100490.88;4904359;29;45476;-81
2023/08/26 09:44:10;;;;;;;;;2.00;2.00;;;;;25.33;50.91;100509.88;4906393;29;45363;-81
2023/08/26 09:46:36;;;;;;;;;3.00;3.00;;;;;25.08;51.05;100496.56;4889592;29;45417;-81
2023/08/26 09:49:02;;;;;;;;;1.00;1.00;;;;;25.04;51.10;100498.56;4889444;29;45521;-81
2023/08/26 09:51:35;;;;;;;;;2.25;2.25;;;;;25.04;51.86;100494.97;4889951;29;45463;-82
2023/08/26 09:54:01;;;;;;;;;1.00;1.00;;;;;24.90;51.62;100498.38;4906708;29;45754;-81
2023/08/26 09:56:27;;;;;;;;;1.00;1.00;;;;;24.97;51.72;100488.09;4907038;29;45412;-81
2023/08/26 09:58:56;;;;;;;;;2.00;0.75;;;;;25.08;51.81;100482.97;4907382;29;45414;-82
2023/08/26 10:01:23;;;;;;;;;1.25;1.25;;;;;25.22;51.65;100480.47;4889844;29;45567;-81
2023/08/26 10:04:13;;;;;;;;;1.00;1.00;;;;;25.42;51.13;100481.28;4907542;29;45564;-81
2023/08/26 10:06:43;;;;;;;;;0.75;0.75;;;;;25.31;50.83;100481.84;4906565;29;45647;-81
2023/08/26 10:09:31;;;;;;;;;0.00;0.00;;;;;25.31;50.61;100487.31;4889962;28;48121;-82
2023/08/26 10:12:00;;;;;;;;;1.00;1.00;;;;;25.22;50.51;100477.75;4905421;29;44847;-81
2023/08/26 10:14:31;;;;;;;;;1.00;1.00;;;;;25.20;50.16;100471.47;4904833;29;45330;-82
2023/08/26 10:16:58;;;;;;;;;0.50;0.50;;;;;25.11;50.50;100469.22;4904592;29;45445;-81
2023/08/26 10:19:24;;;;;;;;;2.00;1.50;;;;;25.06;49.92;100471.28;4903877;29;46386;-82
2023/08/26 10:21:52;;;;;;;;;1.00;1.00;;;;;24.99;50.66;100480.72;4904530;29;45389;-81
2023/08/26 10:24:18;;;;;;;;;1.00;1.00;;;;;24.78;51.04;100471.78;4902542;29;45372;-81
2023/08/26 10:26:44;;;;;;;;;1.00;1.00;;;;;24.68;50.56;100466.81;4903688;29;44893;-81
2023/08/26 10:29:10;;;;;;;;;3.00;1.50;;;;;24.62;50.99;100477.09;4906297;29;45399;-82
2023/08/26 10:31:39;;;;;;;;;2.00;2.00;;;;;24.52;51.23;100457.63;4890621;29;45957;-82
2023/08/26 10:34:07;;;;;;;;;0.00;0.00;;;;;24.64;50.88;100469.72;4908895;29;45322;-81
2023/08/26 10:36:41;;;;;;;;;0.00;0.00;;;;;24.72;51.50;100475.69;4891553;29;45457;-81
2023/08/26 10:39:19;;;;;;;;;1.00;1.00;;;;;24.68;50.20;100468.63;4888810;29;47728;-81
2023/08/26 10:42:13;;;;;;;;;0.75;0.75;;;;;24.90;50.83;100472.03;4906429;29;45450;-81
2023/08/26 10:44:41;;;;;;;;;0.75;0.75;;;;;25.04;50.86;100465.03;4904362;29;44868;-82
2023/08/26 10:47:06;;;;;;;;;1.00;1.00;;;;;25.09;50.57;100457.53;4903681;29;45417;-82
2023/08/26 10:49:35;;;;;;;;;1.00;1.00;;;;;25.37;50.03;100464.28;4903749;29;45377;-81
2023/08/26 10:52:15;;;;;;;;;1.00;1.00;;;;;25.56;50.08;100462.38;4887649;29;45402;-83
2023/08/26 10:58:19;;;;;;;;;1.25;1.25;;;;;26.00;48.73;100452.81;4905765;29;45676;-81
2023/08/26 11:00:49;;;;;;;;;0.00;0.00;;;;;26.04;49.10;100444.41;4904302;28;47668;-81
2023/08/26 11:03:18;;;;;;;;;1.00;1.00;;;;;26.24;48.64;100446.00;4907213;29;44797;-81
2023/08/26 11:05:59;;;;;;;;;1.00;1.00;;;;;26.20;48.02;100440.78;4906361;29;45399;-81
2023/08/26 11:08:25;;;;;;;;;1.00;1.00;;;;;26.22;47.22;100438.88;4887824;29;45603;-82
2023/08/26 11:10:51;;;;;;;;;2.00;2.00;;;;;26.31;47.37;100424.72;4905309;29;46049;-82
2023/08/26 11:13:16;;;;;;;;;1.25;1.25;;;;;26.37;47.22;100435.28;4903651;29;45507;-82
2023/08/26 11:15:43;;;;;;;;;1.00;1.00;;;;;26.46;47.47;100436.59;4906417;29;45453;-81
2023/08/26 11:18:10;;;;;;;;;2.75;1.00;;;;;26.50;47.32;100427.28;4888272;29;45478;-82
2023/08/26 11:20:36;;;;;;;;;2.50;1.50;;;;;26.51;46.62;100426.31;4888022;29;47144;-82
2023/08/26 11:23:03;;;;;;;;;1.00;1.00;;;;;26.59;46.61;100429.53;4889123;29;45402;-82
2023/08/26 11:25:29;;;;;;;;;1.00;1.00;;;;;26.54;46.56;100427.03;4906170;29;45491;-82
2023/08/26 11:28:05;;;;;;;;;0.25;0.25;;;;;26.73;46.29;100423.25;4903480;29;45440;-82
2023/08/26 11:30:35;;;;;;;;;0.75;0.75;;;;;26.63;46.32;100420.19;4886362;29;48588;-82
2023/08/26 11:33:07;;;;;;;;;1.00;1.00;;;;;26.72;46.05;100407.84;4903758;29;45345;-82
2023/08/26 11:35:33;;;;;;;;;2.00;2.00;;;;;26.62;46.41;100401.19;4887277;29;45533;-82
2023/08/26 11:37:59;;;;;;;;;1.00;1.00;;;;;26.69;46.11;100419.81;4904199;29;45474;-82
2023/08/26 11:40:25;;;;;;;;;2.25;2.25;;;;;26.58;46.43;100405.91;4900458;29;47675;-82